LRIA - IASI

Compiled: 03:11:45 on 13/11/2018

Latest METAR/SPECI Reports

METAR LRIA 130300Z 11016KT 8000 OVC004 02/01 Q1034=

Previous reports

METAR LRIA 130230Z 11015KT 9999 OVC004 03/01 Q1034=
METAR LRIA 130200Z 11014KT 9999 OVC004 03/01 Q1034=
METAR LRIA 130130Z 11014KT 9999 OVC004 03/01 Q1034=
METAR LRIA 130100Z 12015KT 9999 OVC004 03/01 Q1034=

Latest TAF report

TAF LRIA 130200Z 1303/1312 11016KT 9999 OVC005 TEMPO 1303/1305 5000 -DZ BR BKN002 OVC005 BECMG 1306/1308 OVC010 BECMG 1308/1310 OVC015=

Valid WARNINGS

No valid warnings for LRIA